Time;durP1;ratioP1;P1;durP2;ratioP2;P2;SDS_P1;SDS_P2;PMS_P1;PMS_P2;Temp;Humidity;BMP_temperature;BMP_pressure;BME280_temperature;BME280_humidity;BME280_pressure;Samples;Min_cycle;Max_cycle;Signal;HPM_P1;HPM_P2
2022/03/15 05:13:01;;;;;;;7.50;3.80;;;6.20;99.90;;;;;;5229611;23;20051;-85
2022/03/15 05:15:29;;;;;;;8.45;3.67;;;6.00;99.90;;;;;;4936848;29;20303;-86
2022/03/15 05:17:56;;;;;;;7.10;3.42;;;6.10;99.90;;;;;;4931666;29;20135;-81
2022/03/15 05:20:24;;;;;;;7.55;3.40;;;6.10;99.90;;;;;;4916489;29;20139;-81
2022/03/15 05:22:51;;;;;;;8.15;3.92;;;6.10;99.90;;;;;;4918241;29;20048;-81
2022/03/15 05:25:18;;;;;;;9.30;3.92;;;6.00;99.90;;;;;;4919261;29;20484;-84
2022/03/15 05:27:45;;;;;;;7.90;3.75;;;6.10;99.90;;;;;;4918843;29;20086;-85
2022/03/15 05:30:17;;;;;;;6.78;3.60;;;6.00;99.90;;;;;;4918113;29;20052;-83
2022/03/15 05:32:44;;;;;;;7.63;3.42;;;6.00;99.90;;;;;;4918558;29;20059;-83
2022/03/15 05:35:11;;;;;;;10.57;3.92;;;6.00;99.90;;;;;;4918989;29;20146;-83
2022/03/15 05:37:38;;;;;;;8.30;4.00;;;6.10;99.90;;;;;;4918790;29;20135;-84
2022/03/15 05:40:08;;;;;;;6.97;3.97;;;6.00;99.90;;;;;;4918655;29;20060;-84
2022/03/15 05:42:35;;;;;;;8.75;3.83;;;5.90;99.90;;;;;;4918565;29;20062;-83
2022/03/15 05:45:02;;;;;;;6.38;3.50;;;6.00;99.90;;;;;;4918326;29;20099;-84
2022/03/15 05:47:31;;;;;;;7.13;3.55;;;6.00;99.90;;;;;;4918868;29;20075;-85
2022/03/15 05:49:58;;;;;;;8.45;3.67;;;6.00;99.90;;;;;;4920295;29;20094;-84
2022/03/15 05:52:25;;;;;;;8.65;3.70;;;6.00;99.90;;;;;;4918735;29;20127;-83
2022/03/15 05:54:52;;;;;;;7.85;3.70;;;6.00;99.90;;;;;;4917566;29;20135;-84
2022/03/15 05:57:19;;;;;;;7.95;4.22;;;6.00;99.90;;;;;;4918782;29;20479;-87
2022/03/15 05:59:47;;;;;;;6.90;3.50;;;6.10;99.90;;;;;;4918770;29;20135;-86
2022/03/15 06:02:14;;;;;;;6.97;3.30;;;6.20;99.90;;;;;;4918648;29;20052;-87
2022/03/15 06:04:42;;;;;;;6.82;3.40;;;6.20;99.90;;;;;;4918920;29;20059;-86
2022/03/15 06:07:09;;;;;;;5.72;3.40;;;6.20;99.90;;;;;;4919068;29;20102;-87
2022/03/15 06:09:36;;;;;;;10.23;3.50;;;6.20;99.90;;;;;;4918589;29;20083;-86
2022/03/15 06:12:07;;;;;;;9.40;4.35;;;6.20;99.90;;;;;;4918361;29;20060;-89
2022/03/15 06:14:34;;;;;;;8.30;3.58;;;6.20;99.90;;;;;;4918393;29;20063;-86
2022/03/15 06:17:01;;;;;;;8.57;3.75;;;6.40;99.90;;;;;;4918640;29;20407;-87
2022/03/15 06:19:28;;;;;;;10.60;4.03;;;6.40;99.90;;;;;;4917387;29;20084;-87
2022/03/15 06:21:56;;;;;;;7.32;3.50;;;6.40;99.90;;;;;;4918656;29;20108;-90
2022/03/15 06:24:26;;;;;;;8.85;3.70;;;6.50;99.90;;;;;;4919000;29;20561;-90
2022/03/15 06:26:54;;;;;;;8.10;3.78;;;6.60;99.90;;;;;;4918473;29;20056;-89
2022/03/15 06:29:21;;;;;;;6.07;3.45;;;6.50;99.90;;;;;;4918474;29;20099;-84
2022/03/15 06:31:48;;;;;;;7.78;4.03;;;6.60;99.90;;;;;;4917701;29;20143;-88
2022/03/15 06:34:15;;;;;;;5.80;3.72;;;6.40;99.90;;;;;;4918181;29;20148;-88
2022/03/15 06:36:42;;;;;;;7.07;3.80;;;6.40;99.90;;;;;;4918238;29;20135;-87
2022/03/15 06:39:11;;;;;;;8.80;3.60;;;6.50;99.90;;;;;;4917924;29;20067;-88
2022/03/15 06:41:39;;;;;;;8.45;3.80;;;6.60;99.90;;;;;;4917982;29;20059;-87
2022/03/15 06:44:06;;;;;;;7.43;3.70;;;6.40;99.90;;;;;;4917709;29;20052;-87
2022/03/15 06:46:34;;;;;;;5.97;3.15;;;6.30;99.90;;;;;;4919254;29;20135;-88
2022/03/15 06:49:01;;;;;;;8.20;3.60;;;6.40;99.90;;;;;;4919499;29;20159;-87
2022/03/15 06:51:29;;;;;;;7.82;3.80;;;6.30;99.90;;;;;;4918586;29;20055;-89
2022/03/15 06:53:56;;;;;;;6.75;3.15;;;6.40;99.90;;;;;;4916608;29;20482;-88
2022/03/15 06:56:25;;;;;;;7.90;3.85;;;6.60;99.90;;;;;;4916625;29;20059;-87
2022/03/15 06:58:52;;;;;;;8.48;3.60;;;6.60;99.90;;;;;;4917599;29;20139;-87
2022/03/15 07:01:20;;;;;;;8.15;3.50;;;6.70;99.90;;;;;;4918123;29;20409;-88
2022/03/15 07:03:47;;;;;;;5.75;3.25;;;6.70;99.90;;;;;;4917812;29;20048;-87
2022/03/15 07:06:15;;;;;;;5.72;3.22;;;6.80;99.90;;;;;;4918901;29;20103;-87
2022/03/15 07:08:42;;;;;;;6.63;3.50;;;6.80;99.90;;;;;;4933025;29;20140;-87
2022/03/15 07:11:09;;;;;;;6.05;3.40;;;6.90;99.90;;;;;;4916246;29;20044;-87
2022/03/15 07:13:38;;;;;;;6.65;3.50;;;6.90;99.90;;;;;;4932393;29;20060;-86
2022/03/15 07:16:06;;;;;;;7.68;3.95;;;7.10;99.90;;;;;;4938158;29;20569;-88
2022/03/15 07:18:33;;;;;;;7.55;3.70;;;6.90;99.90;;;;;;4936818;29;20130;-87
2022/03/15 07:21:00;;;;;;;8.82;3.80;;;7.00;99.90;;;;;;4936487;29;20544;-87
2022/03/15 07:23:27;;;;;;;9.80;4.40;;;6.90;99.90;;;;;;4937110;29;20059;-86
2022/03/15 07:25:54;;;;;;;9.82;4.88;;;6.90;99.90;;;;;;4936644;29;20047;-87
2022/03/15 07:28:22;;;;;;;9.77;4.68;;;6.90;99.90;;;;;;4936400;29;20123;-87
2022/03/15 07:30:50;;;;;;;8.48;4.57;;;7.00;99.90;;;;;;4936257;29;20134;-86
2022/03/15 07:33:17;;;;;;;9.93;5.15;;;7.00;99.90;;;;;;4936427;29;20464;-86
2022/03/15 07:35:44;;;;;;;9.00;4.55;;;6.80;99.90;;;;;;4936340;29;20054;-86
2022/03/15 07:38:16;;;;;;;15.05;7.60;;;7.00;99.90;;;;;;4935687;29;20051;-87
2022/03/15 07:40:44;;;;;;;15.27;8.10;;;7.20;99.90;;;;;;4936466;29;20111;-87
2022/03/15 07:43:11;;;;;;;14.93;7.68;;;7.20;99.90;;;;;;4935107;29;20411;-87
2022/03/15 07:45:39;;;;;;;12.93;6.63;;;7.10;99.90;;;;;;4936224;29;20054;-85
2022/03/15 07:48:08;;;;;;;14.20;6.45;;;7.00;99.90;;;;;;4936348;29;20139;-85
2022/03/15 07:50:35;;;;;;;11.30;5.32;;;7.10;99.90;;;;;;4938121;29;20479;-87
2022/03/15 07:53:02;;;;;;;10.30;5.10;;;7.20;99.90;;;;;;4936146;29;20051;-88
2022/03/15 07:55:29;;;;;;;10.02;4.72;;;7.10;99.90;;;;;;4934504;29;20390;-84
2022/03/15 07:57:56;;;;;;;9.77;4.78;;;7.00;99.90;;;;;;4935442;29;20134;-83
2022/03/15 08:00:23;;;;;;;10.35;4.57;;;7.00;99.90;;;;;;4934286;29;20083;-83
2022/03/15 08:02:52;;;;;;;9.98;4.57;;;7.10;99.90;;;;;;4935257;29;20135;-83
2022/03/15 08:05:22;;;;;;;9.00;4.53;;;7.10;99.90;;;;;;4935246;29;20099;-82
2022/03/15 08:07:50;;;;;;;11.63;4.80;;;7.20;99.90;;;;;;4935372;29;20535;-83
2022/03/15 08:10:17;;;;;;;10.00;4.82;;;7.10;99.90;;;;;;4935375;29;20138;-84
2022/03/15 08:12:44;;;;;;;8.65;4.00;;;7.10;99.90;;;;;;4934995;29;20520;-83
2022/03/15 08:15:12;;;;;;;8.75;4.82;;;7.30;99.90;;;;;;4935146;29;20139;-84
2022/03/15 08:17:40;;;;;;;7.90;4.40;;;7.10;99.90;;;;;;4940378;29;20541;-84
2022/03/15 08:20:09;;;;;;;8.45;4.70;;;7.10;99.90;;;;;;4938476;29;20083;-83
2022/03/15 08:22:37;;;;;;;8.70;4.20;;;7.10;99.90;;;;;;4938781;29;20083;-84
2022/03/15 08:25:06;;;;;;;7.07;3.67;;;7.20;99.90;;;;;;4938548;29;20134;-82
2022/03/15 08:27:34;;;;;;;7.07;3.58;;;7.40;99.90;;;;;;4938842;29;20139;-84
2022/03/15 08:30:01;;;;;;;6.60;4.05;;;7.50;99.90;;;;;;4938308;29;20052;-83
2022/03/15 08:32:28;;;;;;;8.63;4.63;;;7.50;99.90;;;;;;4938165;29;20054;-83
2022/03/15 08:34:55;;;;;;;10.80;4.72;;;7.60;99.90;;;;;;4938288;29;20130;-84
2022/03/15 08:37:22;;;;;;;7.93;3.88;;;7.50;99.90;;;;;;4938232;29;20480;-83
2022/03/15 08:39:50;;;;;;;9.50;4.90;;;7.80;99.90;;;;;;4938099;29;20573;-83
2022/03/15 08:42:18;;;;;;;10.43;4.78;;;7.60;99.90;;;;;;4938247;29;20138;-83
2022/03/15 08:44:45;;;;;;;7.93;4.20;;;7.70;99.90;;;;;;4938158;29;20134;-83
2022/03/15 08:47:13;;;;;;;9.00;4.03;;;7.80;99.90;;;;;;4937941;29;20083;-84
2022/03/15 08:49:41;;;;;;;9.27;4.45;;;7.90;99.90;;;;;;4936963;29;20056;-83
2022/03/15 08:52:08;;;;;;;9.43;4.47;;;7.70;99.90;;;;;;4938206;29;20055;-82
2022/03/15 08:54:35;;;;;;;9.88;4.68;;;7.60;99.90;;;;;;4938092;29;20043;-83
2022/03/15 08:57:05;;;;;;;9.13;4.15;;;7.60;99.90;;;;;;4937896;29;20059;-84
2022/03/15 08:59:32;;;;;;;7.20;3.78;;;7.60;99.90;;;;;;4937852;29;20087;-82
2022/03/15 09:02:01;;;;;;;9.05;3.80;;;7.80;99.90;;;;;;4937746;29;20587;-83
2022/03/15 09:04:28;;;;;;;9.25;4.50;;;7.90;99.90;;;;;;4938014;29;20051;-82
2022/03/15 09:06:55;;;;;;;8.45;3.75;;;7.80;99.30;;;;;;4938343;29;20078;-84
2022/03/15 09:09:24;;;;;;;8.13;3.70;;;7.90;99.60;;;;;;4937972;29;20138;-84
2022/03/15 09:11:51;;;;;;;7.30;3.60;;;8.20;99.00;;;;;;4937742;29;20098;-84
2022/03/15 09:14:20;;;;;;;8.50;3.80;;;8.10;99.10;;;;;;4937672;29;20135;-82
2022/03/15 09:16:47;;;;;;;8.32;3.33;;;8.20;99.50;;;;;;4940889;29;20115;-83
2022/03/15 09:19:14;;;;;;;7.57;3.70;;;8.20;99.50;;;;;;4938601;29;20131;-83
2022/03/15 09:21:41;;;;;;;8.38;3.83;;;8.20;99.30;;;;;;4937688;29;20404;-84
2022/03/15 09:24:09;;;;;;;7.60;3.80;;;8.20;99.60;;;;;;4937565;29;20083;-84
2022/03/15 09:26:36;;;;;;;8.05;3.22;;;8.20;99.60;;;;;;4937332;29;20139;-82
2022/03/15 09:29:03;;;;;;;8.55;4.20;;;8.20;99.90;;;;;;4937274;29;20134;-84
2022/03/15 09:31:31;;;;;;;8.52;3.80;;;8.20;99.90;;;;;;4937201;29;20143;-83
2022/03/15 09:33:59;;;;;;;7.07;3.60;;;8.00;99.90;;;;;;4937450;29;20075;-83
2022/03/15 09:36:26;;;;;;;9.60;3.10;;;8.20;99.90;;;;;;4937295;29;20135;-84
2022/03/15 09:38:53;;;;;;;9.00;3.30;;;8.40;99.90;;;;;;4936344;29;20134;-85
2022/03/15 09:41:21;;;;;;;6.93;3.20;;;8.60;99.90;;;;;;4937247;29;20055;-84
2022/03/15 09:43:49;;;;;;;6.40;3.30;;;8.70;99.30;;;;;;4936956;29;20492;-84
2022/03/15 09:46:18;;;;;;;5.57;2.80;;;8.80;99.50;;;;;;4937292;29;20387;-83
2022/03/15 09:48:51;;;;;;;5.25;2.78;;;8.80;99.20;;;;;;4919487;29;20131;-83
2022/03/15 09:51:20;;;;;;;5.53;2.78;;;8.90;99.50;;;;;;4896819;29;20064;-85
2022/03/15 09:53:48;;;;;;;5.60;2.70;;;8.80;99.50;;;;;;4896785;29;20136;-85
2022/03/15 09:56:16;;;;;;;8.32;3.35;;;8.80;99.30;;;;;;4895528;29;20068;-82
2022/03/15 09:58:44;;;;;;;6.28;2.80;;;8.70;99.00;;;;;;4896871;29;20425;-83
2022/03/15 10:01:17;;;;;;;6.38;2.65;;;8.60;98.90;;;;;;4910483;29;20497;-84
2022/03/15 10:03:46;;;;;;;5.35;2.42;;;8.80;99.10;;;;;;4923966;29;20122;-85
2022/03/15 10:06:14;;;;;;;4.93;2.80;;;8.90;99.90;;;;;;4926200;29;20480;-85
2022/03/15 10:08:41;;;;;;;6.63;2.83;;;8.80;99.90;;;;;;4916805;29;20095;-83
2022/03/15 10:11:09;;;;;;;6.05;2.80;;;8.90;99.90;;;;;;4925793;29;20086;-85
2022/03/15 10:13:36;;;;;;;6.03;3.05;;;8.90;99.90;;;;;;4915141;29;20068;-86
2022/03/15 10:16:06;;;;;;;6.13;2.80;;;8.90;99.90;;;;;;4929893;29;20073;-85
2022/03/15 10:18:33;;;;;;;6.28;2.95;;;9.00;99.90;;;;;;4925135;29;20099;-85
2022/03/15 10:21:05;;;;;;;7.75;3.58;;;9.00;99.90;;;;;;4915198;29;20066;-84
2022/03/15 10:23:37;;;;;;;7.80;3.28;;;9.00;99.90;;;;;;4915477;29;20115;-84
2022/03/15 10:26:05;;;;;;;8.98;3.88;;;9.00;99.90;;;;;;4915561;29;20048;-86
2022/03/15 10:28:34;;;;;;;7.55;3.85;;;9.00;99.90;;;;;;4935183;29;20062;-87
2022/03/15 10:31:04;;;;;;;8.30;4.07;;;9.00;99.90;;;;;;4934070;29;20055;-86
2022/03/15 10:33:36;;;;;;;8.00;4.53;;;8.90;99.90;;;;;;4933685;29;20056;-85
2022/03/15 10:36:17;;;;;;;8.10;3.95;;;9.00;99.90;;;;;;4921200;29;20056;-84
2022/03/15 10:38:48;;;;;;;9.63;4.20;;;9.00;99.90;;;;;;4934352;29;20060;-85
2022/03/15 10:41:16;;;;;;;8.43;4.03;;;9.00;99.90;;;;;;4922083;29;20119;-85
2022/03/15 10:43:44;;;;;;;8.32;4.03;;;9.00;99.90;;;;;;4913979;29;20088;-85
2022/03/15 10:46:13;;;;;;;7.32;3.20;;;8.90;99.90;;;;;;4914269;29;20082;-82
2022/03/15 10:48:41;;;;;;;6.30;3.42;;;9.00;99.90;;;;;;4912282;29;20187;-82
2022/03/15 10:51:14;;;;;;;7.15;3.20;;;9.00;99.90;;;;;;4914256;29;20070;-79
2022/03/15 10:53:44;;;;;;;5.93;3.45;;;9.10;99.90;;;;;;4927459;29;20414;-78
2022/03/15 10:56:14;;;;;;;5.63;3.20;;;9.10;99.90;;;;;;4915199;29;20062;-88
2022/03/15 10:58:50;;;;;;;8.38;3.97;;;9.00;99.90;;;;;;4913872;29;20131;-81
2022/03/15 11:01:21;;;;;;;7.28;3.83;;;9.10;99.90;;;;;;4912652;29;20135;-80
2022/03/15 11:04:01;;;;;;;8.38;3.70;;;9.30;99.90;;;;;;4913647;29;20055;-81
2022/03/15 11:06:38;;;;;;;6.97;3.45;;;9.30;99.90;;;;;;4898831;29;20060;-79
2022/03/15 11:09:21;;;;;;;7.32;3.40;;;9.40;99.90;;;;;;4899277;29;20055;-81
2022/03/15 11:11:54;;;;;;;7.38;3.90;;;9.30;99.90;;;;;;4913890;29;20055;-78
2022/03/15 11:14:38;;;;;;;7.88;4.05;;;9.50;99.90;;;;;;4914806;29;20247;-81
2022/03/15 11:17:10;;;;;;;6.50;3.22;;;9.20;99.90;;;;;;4914096;29;20132;-82
2022/03/15 11:19:45;;;;;;;9.75;4.05;;;9.30;99.90;;;;;;4912943;29;20570;-81
2022/03/15 11:22:14;;;;;;;;;;;9.40;99.90;;;;;;4914430;29;20059;-80
2022/03/15 11:24:45;;;;;;;9.30;3.95;;;9.30;99.90;;;;;;4913712;29;19927;-80
2022/03/15 11:27:16;;;;;;;8.07;3.97;;;9.30;99.90;;;;;;4914475;29;20048;-80
2022/03/15 11:29:45;;;;;;;8.02;4.20;;;9.20;99.90;;;;;;4913918;29;20052;-80
2022/03/15 11:32:14;;;;;;;10.73;4.03;;;9.10;99.90;;;;;;4914154;29;20175;-80
2022/03/15 11:34:42;;;;;;;7.22;3.75;;;9.20;99.90;;;;;;4913597;29;20078;-80
2022/03/15 11:37:12;;;;;;;8.00;3.45;;;9.20;99.90;;;;;;4913169;29;20511;-81
2022/03/15 11:39:41;;;;;;;7.13;3.78;;;9.20;99.90;;;;;;4909468;29;20048;-81
2022/03/15 11:42:11;;;;;;;6.45;3.58;;;9.10;99.90;;;;;;4913839;29;20060;-81
2022/03/15 11:44:54;;;;;;;8.35;3.83;;;9.10;99.90;;;;;;4913983;29;20064;-80
2022/03/15 11:47:36;;;;;;;9.05;4.07;;;9.20;99.90;;;;;;4913979;29;20052;-80
2022/03/15 11:50:12;;;;;;;6.38;4.03;;;9.20;99.90;;;;;;4911991;29;20059;-80
2022/03/15 11:52:56;;;;;;;8.32;4.10;;;9.20;99.90;;;;;;4915853;29;20060;-80
2022/03/15 11:55:32;;;;;;;8.18;4.43;;;9.20;99.90;;;;;;4917670;29;20462;-80
2022/03/15 11:58:04;;;;;;;7.53;3.58;;;9.20;99.90;;;;;;4917421;29;20048;-82
2022/03/15 12:00:42;;;;;;;7.28;3.88;;;9.20;99.90;;;;;;4917170;29;20143;-81
2022/03/15 12:03:10;;;;;;;8.43;3.80;;;9.20;99.90;;;;;;4917363;29;20048;-80
2022/03/15 12:05:49;;;;;;;6.72;3.55;;;9.20;99.90;;;;;;4916897;29;20147;-81
2022/03/15 12:08:19;;;;;;;8.40;4.10;;;9.20;99.90;;;;;;4917205;29;20139;-80
2022/03/15 12:10:56;;;;;;;6.18;3.42;;;9.20;99.90;;;;;;4917010;29;20498;-82
2022/03/15 12:13:35;;;;;;;7.13;3.72;;;9.30;99.90;;;;;;4916403;29;20096;-80
2022/03/15 12:16:15;;;;;;;7.55;3.97;;;9.30;99.90;;;;;;4916954;29;20433;-81
2022/03/15 12:18:48;;;;;;;7.10;3.65;;;9.30;99.90;;;;;;4917357;29;20063;-80
2022/03/15 12:21:15;;;;;;;7.90;4.25;;;9.20;99.90;;;;;;4916667;29;20052;-79
2022/03/15 12:23:45;;;;;;;11.77;4.93;;;9.20;99.90;;;;;;4917450;29;20127;-80
2022/03/15 12:26:22;;;;;;;11.65;5.47;;;9.00;99.90;;;;;;4916951;29;20123;-81
2022/03/15 12:28:59;;;;;;;9.27;4.60;;;8.80;99.90;;;;;;4916982;29;20387;-79
2022/03/15 12:31:38;;;;;;;11.95;5.22;;;8.80;99.90;;;;;;4917065;29;20139;-79
2022/03/15 12:34:08;;;;;;;10.25;5.05;;;8.80;99.90;;;;;;4916254;29;20052;-81
2022/03/15 12:36:49;;;;;;;7.72;4.60;;;8.80;99.90;;;;;;4916524;29;20111;-81
2022/03/15 12:39:18;;;;;;;7.97;4.57;;;8.80;99.90;;;;;;4916690;29;20060;-79
2022/03/15 12:41:48;;;;;;;9.18;4.30;;;8.70;99.90;;;;;;4916843;29;20051;-80
2022/03/15 12:44:43;;;;;;;11.38;5.18;;;8.70;99.90;;;;;;4916108;29;20052;-81
2022/03/15 12:47:11;;;;;;;10.10;5.63;;;8.50;99.90;;;;;;4916441;29;20078;-80
2022/03/15 12:49:38;;;;;;;8.27;4.60;;;8.40;99.90;;;;;;4914217;29;20156;-81
2022/03/15 12:52:14;;;;;;;11.38;4.82;;;8.40;99.90;;;;;;4916264;29;20131;-81
2022/03/15 12:54:45;;;;;;;10.55;5.65;;;8.50;99.90;;;;;;4915224;29;20056;-81
2022/03/15 12:57:15;;;;;;;8.40;4.95;;;8.40;99.90;;;;;;4915940;29;20126;-80
2022/03/15 12:59:49;;;;;;;8.38;4.95;;;8.40;99.90;;;;;;4916530;29;20146;-80
2022/03/15 13:02:18;;;;;;;9.45;5.50;;;8.40;99.90;;;;;;4915893;29;20645;-81
2022/03/15 13:04:45;;;;;;;11.38;5.45;;;8.40;99.90;;;;;;4916372;29;20383;-80
2022/03/15 13:07:12;;;;;;;9.52;5.78;;;8.30;99.90;;;;;;4916016;29;20500;-81
2022/03/15 13:09:39;;;;;;;9.52;5.75;;;8.40;99.90;;;;;;4916003;29;20520;-82
2022/03/15 13:12:16;;;;;;;11.35;6.00;;;8.30;99.90;;;;;;4915036;29;20048;-80
2022/03/15 13:14:44;;;;;;;11.35;5.60;;;8.30;99.90;;;;;;4916126;29;20108;-80
2022/03/15 13:17:11;;;;;;;10.40;5.03;;;8.40;99.90;;;;;;4915959;29;20092;-79
2022/03/15 13:19:38;;;;;;;11.75;6.03;;;8.50;99.90;;;;;;4915897;29;20127;-80
2022/03/15 13:22:06;;;;;;;10.50;5.05;;;8.50;99.90;;;;;;4915965;29;20080;-79
2022/03/15 13:24:37;;;;;;;8.52;4.60;;;8.40;99.90;;;;;;4915910;29;20048;-80
2022/03/15 13:27:06;;;;;;;8.63;4.95;;;8.50;99.90;;;;;;4915717;29;20111;-81
2022/03/15 13:29:39;;;;;;;8.38;4.65;;;8.60;99.90;;;;;;4915947;29;20091;-79
2022/03/15 13:32:07;;;;;;;9.88;4.93;;;8.70;99.90;;;;;;4914530;29;20171;-80
2022/03/15 13:34:35;;;;;;;7.45;4.68;;;8.70;99.90;;;;;;4915561;29;20052;-81
2022/03/15 13:37:04;;;;;;;10.15;4.50;;;8.80;99.90;;;;;;4915579;29;20139;-81
2022/03/15 13:39:31;;;;;;;8.40;4.60;;;8.80;99.90;;;;;;4916288;29;20139;-81
2022/03/15 13:42:00;;;;;;;8.70;4.70;;;8.80;99.90;;;;;;4915423;29;20144;-81
2022/03/15 13:44:32;;;;;;;7.30;4.50;;;8.90;99.90;;;;;;4915545;29;20470;-82
2022/03/15 13:47:06;;;;;;;8.82;4.65;;;8.80;99.90;;;;;;4915525;29;20135;-80
2022/03/15 13:49:37;;;;;;;8.90;4.90;;;8.80;99.90;;;;;;4913382;29;20052;-80
2022/03/15 13:52:07;;;;;;;10.27;6.40;;;8.70;99.90;;;;;;4915416;29;20062;-80
2022/03/15 13:54:48;;;;;;;11.88;5.85;;;8.40;99.90;;;;;;4915266;29;20073;-81
2022/03/15 13:57:25;;;;;;;11.50;6.32;;;8.50;99.90;;;;;;4915797;29;20506;-81
2022/03/15 14:00:03;;;;;;;9.60;5.45;;;8.40;99.90;;;;;;4914699;29;20048;-81
2022/03/15 14:02:35;;;;;;;13.52;6.15;;;8.60;99.90;;;;;;4914591;29;20056;-80
2022/03/15 14:05:07;;;;;;;9.98;5.80;;;8.50;99.90;;;;;;4915165;29;20112;-80
2022/03/15 14:07:35;;;;;;;10.27;5.30;;;8.50;99.90;;;;;;4914956;29;20514;-80
2022/03/15 14:10:08;;;;;;;8.18;4.97;;;8.50;99.90;;;;;;4915129;29;20059;-80
2022/03/15 14:12:38;;;;;;;10.48;5.25;;;8.70;99.90;;;;;;4914365;29;20067;-80
2022/03/15 14:15:10;;;;;;;9.38;5.13;;;8.70;99.90;;;;;;4914618;29;20068;-80
2022/03/15 14:17:49;;;;;;;10.18;5.68;;;8.80;99.90;;;;;;4914854;29;20048;-80
2022/03/15 14:20:18;;;;;;;9.63;5.18;;;8.70;99.90;;;;;;4914867;29;20044;-79
2022/03/15 14:22:49;;;;;;;11.52;5.60;;;8.70;99.90;;;;;;4914862;29;20421;-81
2022/03/15 14:25:22;;;;;;;7.85;5.07;;;8.70;99.90;;;;;;4914294;29;20052;-79
2022/03/15 14:27:55;;;;;;;8.52;5.00;;;8.80;99.90;;;;;;4914976;29;20070;-80
2022/03/15 14:30:23;;;;;;;10.55;5.88;;;9.00;99.90;;;;;;4914465;29;20139;-80
2022/03/15 14:32:54;;;;;;;10.77;6.20;;;9.10;99.90;;;;;;4914247;29;20489;-80
2022/03/15 14:35:29;;;;;;;12.10;6.15;;;8.80;99.90;;;;;;4914680;29;20056;-80
2022/03/15 14:38:06;;;;;;;11.07;6.32;;;8.90;99.90;;;;;;4914623;29;20052;-79
2022/03/15 14:40:40;;;;;;;11.57;5.90;;;9.00;99.90;;;;;;4914736;29;20502;-81
2022/03/15 14:43:07;;;;;;;8.32;5.00;;;9.10;99.90;;;;;;4914671;29;20052;-81
2022/03/15 14:45:35;;;;;;;8.68;5.68;;;9.30;99.90;;;;;;4914489;29;20059;-80
2022/03/15 14:48:07;;;;;;;12.73;6.25;;;9.30;99.90;;;;;;4914731;29;20058;-81
2022/03/15 14:50:36;;;;;;;9.43;5.28;;;9.30;99.90;;;;;;4913512;29;20151;-78
2022/03/15 14:53:03;;;;;;;10.88;5.97;;;9.50;99.90;;;;;;4914531;29;20087;-81
2022/03/15 14:55:30;;;;;;;10.05;5.90;;;9.60;99.90;;;;;;4914579;29;20056;-81
2022/03/15 14:57:58;;;;;;;9.65;5.13;;;9.60;99.90;;;;;;4914257;29;20056;-79
2022/03/15 15:00:26;;;;;;;9.15;5.07;;;9.70;99.90;;;;;;4913793;29;20481;-79
2022/03/15 15:02:53;;;;;;;9.15;5.13;;;9.70;99.90;;;;;;4914225;29;20062;-79
2022/03/15 15:05:27;;;;;;;10.60;5.70;;;9.70;99.90;;;;;;4914465;29;20048;-80
2022/03/15 15:07:55;;;;;;;9.73;5.03;;;9.60;99.90;;;;;;4914537;29;20056;-79
2022/03/15 15:10:23;;;;;;;9.85;5.60;;;9.70;99.90;;;;;;4914717;29;20087;-79
2022/03/15 15:12:50;;;;;;;7.60;4.95;;;9.50;99.90;;;;;;4913563;29;20107;-80
2022/03/15 15:15:19;;;;;;;11.32;5.88;;;9.40;99.90;;;;;;4914532;29;20062;-80
2022/03/15 15:17:48;;;;;;;8.43;4.55;;;9.40;99.90;;;;;;4914255;29;20410;-81
2022/03/15 15:20:16;;;;;;;8.18;4.78;;;9.50;99.90;;;;;;4914069;29;20080;-80
2022/03/15 15:22:44;;;;;;;7.70;4.97;;;9.60;99.90;;;;;;4914345;29;20573;-81
2022/03/15 15:25:11;;;;;;;11.50;5.63;;;9.60;99.90;;;;;;4914227;29;20142;-80
2022/03/15 15:27:39;;;;;;;8.63;5.60;;;9.50;99.90;;;;;;4918591;29;20135;-78
2022/03/15 15:30:08;;;;;;;10.15;5.68;;;9.60;99.90;;;;;;4917763;29;20052;-81
2022/03/15 15:32:36;;;;;;;9.98;5.30;;;9.60;99.90;;;;;;4918389;29;20048;-81
2022/03/15 15:35:06;;;;;;;8.77;4.82;;;9.60;99.90;;;;;;4918400;29;20091;-81
2022/03/15 15:37:33;;;;;;;9.90;5.50;;;9.60;99.90;;;;;;4917930;29;20052;-81
2022/03/15 15:40:03;;;;;;;10.10;4.70;;;9.50;99.90;;;;;;4917834;29;20494;-79
2022/03/15 15:42:30;;;;;;;9.43;5.28;;;9.50;99.90;;;;;;4917982;29;20052;-80
2022/03/15 15:44:57;;;;;;;8.68;5.07;;;9.50;99.90;;;;;;4917895;29;20130;-81
2022/03/15 15:47:26;;;;;;;8.57;5.25;;;9.50;99.90;;;;;;4917640;29;20107;-78
2022/03/15 15:49:55;;;;;;;8.70;5.47;;;9.50;99.90;;;;;;4915670;29;20143;-79
2022/03/15 15:52:24;;;;;;;9.88;5.40;;;9.50;99.90;;;;;;4917633;29;20060;-80
2022/03/15 15:54:55;;;;;;;9.30;5.10;;;9.50;99.90;;;;;;4917231;29;20589;-80
2022/03/15 15:57:26;;;;;;;10.02;5.72;;;9.60;99.90;;;;;;4917517;29;20175;-80
2022/03/15 15:59:53;;;;;;;9.27;5.20;;;9.50;99.90;;;;;;4917255;29;20055;-80
2022/03/15 16:02:20;;;;;;;9.15;4.45;;;9.50;99.90;;;;;;4917066;29;20060;-79
2022/03/15 16:04:47;;;;;;;7.70;4.60;;;9.60;99.90;;;;;;4917537;29;20056;-80
2022/03/15 16:07:27;;;;;;;7.30;4.55;;;9.60;99.90;;;;;;4917124;29;20056;-79
2022/03/15 16:09:55;;;;;;;7.32;4.40;;;9.60;99.90;;;;;;4917353;29;20052;-80
2022/03/15 16:12:24;;;;;;;6.18;3.70;;;9.70;99.90;;;;;;4916793;29;20577;-79
2022/03/15 16:14:51;;;;;;;7.13;3.90;;;9.80;99.90;;;;;;4917267;29;20048;-79
2022/03/15 16:17:19;;;;;;;7.57;4.38;;;10.00;99.90;;;;;;4917307;29;20059;-80
2022/03/15 16:19:46;;;;;;;7.05;4.70;;;9.90;99.90;;;;;;4917260;29;20969;-80
2022/03/15 16:22:13;;;;;;;9.50;4.78;;;9.80;99.90;;;;;;4917236;29;20536;-81
2022/03/15 16:24:40;;;;;;;6.95;4.50;;;9.80;99.90;;;;;;4916926;29;20151;-80
2022/03/15 16:27:08;;;;;;;6.55;3.97;;;9.80;99.90;;;;;;4917545;29;20143;-81
2022/03/15 16:29:37;;;;;;;8.40;4.75;;;9.70;99.90;;;;;;4917036;29;20103;-81
2022/03/15 16:32:05;;;;;;;6.90;4.18;;;9.80;99.90;;;;;;4916915;29;20048;-79
2022/03/15 16:34:33;;;;;;;7.47;4.30;;;9.70;99.90;;;;;;4917535;29;20505;-80
2022/03/15 16:37:01;;;;;;;8.73;4.53;;;9.80;99.90;;;;;;4915529;29;20135;-81
2022/03/15 16:39:28;;;;;;;6.28;4.28;;;9.70;99.90;;;;;;4916548;29;20056;-83
2022/03/15 16:41:55;;;;;;;6.53;4.28;;;9.80;99.90;;;;;;4917194;29;20131;-81
2022/03/15 16:44:22;;;;;;;8.27;4.00;;;9.80;99.90;;;;;;4917011;29;20080;-82
2022/03/15 16:46:50;;;;;;;9.80;4.38;;;9.80;99.90;;;;;;4916999;29;20135;-82
2022/03/15 16:49:17;;;;;;;9.77;4.60;;;9.80;99.90;;;;;;4915313;29;20055;-81
2022/03/15 16:51:45;;;;;;;8.45;4.18;;;9.80;99.90;;;;;;4913271;29;20509;-86
2022/03/15 16:54:12;;;;;;;7.82;4.32;;;9.90;99.90;;;;;;4916864;29;20056;-83
2022/03/15 16:56:39;;;;;;;8.55;4.38;;;9.80;99.90;;;;;;4917390;29;20166;-88
2022/03/15 16:59:11;;;;;;;6.60;3.70;;;9.80;99.90;;;;;;4909471;29;20063;-86
2022/03/15 17:01:40;;;;;;;8.27;4.05;;;9.80;99.90;;;;;;4916142;29;20051;-82
2022/03/15 17:06:55;;;;;;;7.53;3.72;;;9.80;99.90;;;;;;4917344;29;20137;-85
2022/03/15 17:09:24;;;;;;;7.03;3.92;;;9.70;99.90;;;;;;4919604;29;20052;-82
2022/03/15 17:12:01;;;;;;;10.25;4.95;;;9.70;99.90;;;;;;4930428;29;20375;-85
2022/03/15 17:14:28;;;;;;;8.63;4.60;;;9.60;99.90;;;;;;4917045;29;20048;-86
2022/03/15 17:17:03;;;;;;;7.63;4.53;;;9.50;99.90;;;;;;4917807;29;20059;-85
2022/03/15 17:19:47;;;;;;;8.10;4.82;;;9.40;99.90;;;;;;4917286;29;20398;-84
2022/03/15 17:22:16;;;;;;;9.13;4.95;;;9.40;99.90;;;;;;4916714;29;20044;-83
2022/03/15 17:24:46;;;;;;;10.30;4.75;;;9.40;99.90;;;;;;4915451;29;20449;-83
2022/03/15 17:27:14;;;;;;;7.55;4.32;;;9.40;99.90;;;;;;4916316;29;20134;-84
2022/03/15 17:29:44;;;;;;;8.70;4.60;;;9.50;99.90;;;;;;4910113;29;20056;-84
2022/03/15 17:32:13;;;;;;;9.80;4.72;;;9.60;99.90;;;;;;4907930;29;20542;-85
2022/03/15 17:34:47;;;;;;;6.93;3.95;;;9.60;99.90;;;;;;4918644;29;20117;-84
2022/03/15 17:37:20;;;;;;;7.75;4.30;;;9.50;99.90;;;;;;4916941;29;20514;-85
2022/03/15 17:39:48;;;;;;;7.43;4.13;;;9.60;99.90;;;;;;4899666;29;20483;-84
2022/03/15 17:42:15;;;;;;;8.68;5.63;;;9.50;99.90;;;;;;4904475;29;20127;-87
2022/03/15 17:44:47;;;;;;;8.70;4.80;;;9.40;99.90;;;;;;4921759;29;20059;-86
2022/03/15 17:47:15;;;;;;;7.60;5.22;;;9.40;99.90;;;;;;4917959;29;20056;-86
2022/03/15 17:49:46;;;;;;;7.53;4.90;;;9.40;99.90;;;;;;4915491;29;20044;-86
2022/03/15 17:52:14;;;;;;;7.93;5.13;;;9.40;99.90;;;;;;4918609;29;20083;-87
2022/03/15 17:54:45;;;;;;;6.90;4.22;;;9.20;99.90;;;;;;4918435;29;20095;-86
2022/03/15 17:57:15;;;;;;;8.73;5.20;;;9.30;99.90;;;;;;4918508;29;20139;-86
2022/03/15 17:59:47;;;;;;;10.20;4.95;;;9.10;99.90;;;;;;4900916;29;20482;-84
2022/03/15 18:02:21;;;;;;;8.90;5.63;;;9.10;99.90;;;;;;4915159;29;20051;-85
2022/03/15 18:04:55;;;;;;;10.18;6.07;;;9.10;99.90;;;;;;4916466;29;20059;-82
2022/03/15 18:07:26;;;;;;;11.52;7.32;;;9.20;99.90;;;;;;4917101;29;20490;-86
2022/03/15 18:09:54;;;;;;;10.00;6.13;;;9.20;99.90;;;;;;4916379;29;20066;-85
2022/03/15 18:12:23;;;;;;;10.63;7.10;;;9.30;99.90;;;;;;4915273;29;20143;-83
2022/03/15 18:14:52;;;;;;;10.30;5.75;;;9.30;99.90;;;;;;4915196;29;20052;-83
2022/03/15 18:17:19;;;;;;;12.70;5.82;;;9.40;99.90;;;;;;4916535;29;20056;-84
2022/03/15 18:19:47;;;;;;;10.00;5.93;;;9.30;99.90;;;;;;4915262;29;20132;-84
2022/03/15 18:22:20;;;;;;;10.18;6.03;;;9.30;99.90;;;;;;4908852;29;20407;-84